createdAt,value
2022-12-29T00:07:24.718Z,0.80
2022-12-29T00:07:29.929Z,0.70
2022-12-29T00:08:37.431Z,0.90
2022-12-29T00:09:30.406Z,0.70
2022-12-29T00:10:33.509Z,0.80
2022-12-29T00:11:30.414Z,0.60
2022-12-29T00:12:32.538Z,0.70
2022-12-29T00:13:46.642Z,0.50
2022-12-29T00:14:34.925Z,0.70
2022-12-29T00:15:31.147Z,0.50
2022-12-29T00:16:31.094Z,0.60
2022-12-29T00:17:30.319Z,0.80
2022-12-29T00:18:37.448Z,0.60
2022-12-29T00:19:30.403Z,0.50
2022-12-29T00:20:30.409Z,0.70
2022-12-29T00:22:15.507Z,0.60
2022-12-29T00:22:29.631Z,0.50
2022-12-29T00:23:32.931Z,0.70
2022-12-29T00:24:30.423Z,0.60
2022-12-29T00:25:30.422Z,0.70
2022-12-29T00:26:30.422Z,0.60
2022-12-29T00:27:34.920Z,0.60
2022-12-29T00:28:30.436Z,0.50
2022-12-29T00:29:30.403Z,0.50
2022-12-29T00:30:34.949Z,0.60
2022-12-29T00:31:34.140Z,0.50
2022-12-29T00:32:30.458Z,0.60
2022-12-29T00:33:33.974Z,0.50
2022-12-29T00:34:30.427Z,0.50
2022-12-29T00:35:30.418Z,0.50
2022-12-29T00:36:35.510Z,0.60
2022-12-29T00:37:30.402Z,0.70
2022-12-29T00:38:30.418Z,0.50
2022-12-29T00:39:30.414Z,0.60
2022-12-29T00:40:30.411Z,0.60
2022-12-29T00:41:34.932Z,0.60
2022-12-29T00:42:34.553Z,0.60
2022-12-29T00:43:29.915Z,0.50
2022-12-29T00:44:29.932Z,0.50
2022-12-29T00:45:29.923Z,0.60
2022-12-29T00:46:37.680Z,0.50
2022-12-29T00:47:37.648Z,0.70
2022-12-29T00:48:30.611Z,0.60
2022-12-29T00:49:31.019Z,0.60
2022-12-29T00:50:37.654Z,0.60
2022-12-29T00:51:29.913Z,0.50
2022-12-29T00:52:33.536Z,0.50
2022-12-29T00:53:30.603Z,0.60
2022-12-29T00:54:29.907Z,0.60
2022-12-29T00:55:31.926Z,0.50
2022-12-29T00:56:34.227Z,0.60
2022-12-29T00:57:29.939Z,0.60
2022-12-29T00:58:29.928Z,0.60
2022-12-29T00:59:29.923Z,0.40
2022-12-29T01:00:29.939Z,0.50
2022-12-29T01:01:32.769Z,0.40
2022-12-29T01:02:30.153Z,0.50
2022-12-29T01:03:36.940Z,0.70
2022-12-29T01:04:34.458Z,0.50
2022-12-29T01:05:29.953Z,0.50
2022-12-29T01:06:30.190Z,0.40
2022-12-29T01:07:34.436Z,0.50
2022-12-29T01:08:31.560Z,0.50
2022-12-29T01:09:29.942Z,0.40
2022-12-29T01:10:29.924Z,0.50
2022-12-29T01:11:32.518Z,0.50
2022-12-29T01:12:34.433Z,0.60
2022-12-29T01:13:29.931Z,0.40
2022-12-29T01:14:29.909Z,0.50
2022-12-29T01:15:30.617Z,0.60
2022-12-29T01:16:29.954Z,0.70
2022-12-29T01:17:37.680Z,0.60
2022-12-29T01:18:30.036Z,0.50
2022-12-29T01:19:33.469Z,0.60
2022-12-29T01:20:29.925Z,0.50
2022-12-29T01:21:29.937Z,0.50
2022-12-29T01:22:36.943Z,0.60
2022-12-29T01:23:29.721Z,0.70
2022-12-29T01:24:29.925Z,0.50
2022-12-29T01:25:33.976Z,0.50
2022-12-29T01:26:30.567Z,0.70
2022-12-29T01:27:36.942Z,0.60
2022-12-29T01:28:33.390Z,0.70
2022-12-29T01:29:29.925Z,0.60
2022-12-29T01:30:36.459Z,0.70
2022-12-29T01:31:31.126Z,0.60
2022-12-29T01:32:29.426Z,0.70
2022-12-29T01:33:29.418Z,0.60
2022-12-29T01:34:36.473Z,0.60
2022-12-29T01:35:29.439Z,0.70
2022-12-29T01:36:29.422Z,0.70
2022-12-29T01:37:30.091Z,0.70
2022-12-29T01:38:33.941Z,0.60
2022-12-29T01:39:32.983Z,0.60
2022-12-29T01:40:31.019Z,0.60
2022-12-29T01:42:34.933Z,0.70
2022-12-29T01:43:34.916Z,0.70
2022-12-29T01:44:34.914Z,0.80
2022-12-29T01:45:35.000Z,0.60
2022-12-29T01:46:34.905Z,0.60
2022-12-29T01:47:34.907Z,0.70
2022-12-29T01:48:35.925Z,1.10
2022-12-29T01:49:34.907Z,0.70
2022-12-29T01:50:34.907Z,0.80
2022-12-29T01:51:34.904Z,0.70
2022-12-29T01:52:38.156Z,0.80
2022-12-29T01:53:34.903Z,0.70
2022-12-29T01:54:34.936Z,0.80
2022-12-29T01:55:35.938Z,0.70
2022-12-29T01:56:34.914Z,0.90
2022-12-29T01:57:34.911Z,0.80
2022-12-29T01:58:34.919Z,0.80
2022-12-29T01:59:35.933Z,0.90
2022-12-29T02:00:34.984Z,0.90
2022-12-29T02:01:39.635Z,0.80
2022-12-29T02:02:35.034Z,0.80
2022-12-29T02:03:34.257Z,0.90
2022-12-29T02:04:34.901Z,0.80
2022-12-29T02:05:37.435Z,0.90
2022-12-29T02:06:34.908Z,0.80
2022-12-29T02:07:35.943Z,0.90
2022-12-29T02:08:34.931Z,0.90
2022-12-29T02:09:34.913Z,0.90
2022-12-29T02:10:34.921Z,0.80
2022-12-29T02:11:35.945Z,1.00
2022-12-29T02:12:34.921Z,0.80
2022-12-29T02:13:35.952Z,0.90
2022-12-29T02:14:34.925Z,0.80
2022-12-29T02:15:34.932Z,0.90
2022-12-29T02:16:36.806Z,0.80
2022-12-29T02:17:34.919Z,1.00
2022-12-29T02:18:36.925Z,1.20
2022-12-29T02:19:34.935Z,1.10
2022-12-29T02:20:34.912Z,1.20
2022-12-29T02:21:34.924Z,0.90
2022-12-29T02:22:33.961Z,1.00
2022-12-29T02:23:35.935Z,0.90
2022-12-29T02:24:33.971Z,0.90
2022-12-29T02:25:35.592Z,1.00
2022-12-29T02:26:34.918Z,0.80
2022-12-29T02:27:34.926Z,1.00
2022-12-29T02:28:35.417Z,1.00
2022-12-29T02:29:33.907Z,1.00
2022-12-29T02:30:34.432Z,1.00
2022-12-29T02:31:34.464Z,0.90
2022-12-29T02:32:34.430Z,1.00
2022-12-29T02:33:34.420Z,0.90
2022-12-29T02:34:33.932Z,1.00
2022-12-29T02:35:34.425Z,1.00
2022-12-29T02:36:34.435Z,0.80
2022-12-29T02:37:34.432Z,1.10
2022-12-29T02:38:36.184Z,0.80
2022-12-29T02:39:34.436Z,0.80
2022-12-29T02:40:48.828Z,0.90
2022-12-29T02:41:34.454Z,0.90
2022-12-29T02:42:34.480Z,1.00
2022-12-29T02:43:35.191Z,0.80
2022-12-29T02:44:34.459Z,1.00
2022-12-29T02:45:35.509Z,1.00
2022-12-29T02:46:34.448Z,0.90
2022-12-29T02:47:34.433Z,1.00
2022-12-29T02:48:34.457Z,1.00
2022-12-29T02:49:38.039Z,0.90
2022-12-29T02:50:35.482Z,1.00
2022-12-29T02:51:35.175Z,1.10
2022-12-29T02:52:34.479Z,0.90
2022-12-29T02:53:34.457Z,0.80
2022-12-29T02:54:35.479Z,1.00
2022-12-29T02:55:34.441Z,0.80
2022-12-29T02:56:34.447Z,1.10
2022-12-29T02:57:34.447Z,0.80
2022-12-29T02:58:34.442Z,1.00
2022-12-29T02:59:34.451Z,0.70
2022-12-29T03:00:38.955Z,1.10
2022-12-29T03:01:34.627Z,0.80
2022-12-29T03:02:34.607Z,1.00
2022-12-29T03:03:34.720Z,0.90
2022-12-29T03:04:34.459Z,0.80
2022-12-29T03:05:35.476Z,0.90
2022-12-29T03:06:37.197Z,1.10
2022-12-29T03:07:34.438Z,0.90
2022-12-29T03:08:34.437Z,0.80
2022-12-29T03:09:34.433Z,0.80
2022-12-29T03:10:37.160Z,0.80
2022-12-29T03:11:35.494Z,0.80
2022-12-29T03:12:34.708Z,0.90
2022-12-29T03:13:33.947Z,0.90
2022-12-29T03:14:34.685Z,0.80
2022-12-29T03:16:38.975Z,0.70
2022-12-29T03:16:44.062Z,0.60
2022-12-29T03:17:44.949Z,0.90
2022-12-29T03:18:44.449Z,0.70
2022-12-29T03:19:44.454Z,0.80
2022-12-29T03:20:44.459Z,0.90
2022-12-29T03:21:46.459Z,0.70
2022-12-29T03:22:44.457Z,0.90
2022-12-29T03:23:44.435Z,0.80
2022-12-29T03:24:44.458Z,0.80
2022-12-29T03:25:43.856Z,0.80
2022-12-29T03:26:46.141Z,0.80
2022-12-29T03:27:45.462Z,0.70
2022-12-29T03:28:44.467Z,0.80
2022-12-29T03:29:44.459Z,0.80
2022-12-29T03:30:44.528Z,0.70
2022-12-29T03:31:44.456Z,0.80
2022-12-29T03:32:44.464Z,0.60
2022-12-29T03:33:45.466Z,0.70
2022-12-29T03:34:44.448Z,0.80
2022-12-29T03:35:45.116Z,0.70
2022-12-29T03:36:44.455Z,0.60
2022-12-29T03:37:48.965Z,0.70
2022-12-29T03:38:44.449Z,0.70
2022-12-29T03:39:44.455Z,0.70
2022-12-29T03:40:44.441Z,0.60
2022-12-29T03:41:44.455Z,0.60
2022-12-29T03:42:45.130Z,0.60
2022-12-29T03:43:45.460Z,0.70
2022-12-29T03:44:44.456Z,0.70
2022-12-29T03:45:58.741Z,0.70
2022-12-29T03:46:44.477Z,0.80
2022-12-29T03:47:44.457Z,0.60
2022-12-29T03:48:45.474Z,0.70
2022-12-29T03:49:45.479Z,0.70
2022-12-29T03:50:44.457Z,0.70
2022-12-29T03:51:44.453Z,0.70
2022-12-29T03:52:44.454Z,0.80
2022-12-29T03:53:45.174Z,0.80
2022-12-29T03:54:44.452Z,0.60
2022-12-29T03:55:44.952Z,0.70
2022-12-29T03:56:48.047Z,0.90
2022-12-29T03:57:45.624Z,0.70
2022-12-29T03:58:44.486Z,0.70
2022-12-29T03:59:44.449Z,0.80
2022-12-29T04:00:46.981Z,0.70
2022-12-29T04:01:44.519Z,0.70
2022-12-29T04:02:44.707Z,0.80
2022-12-29T04:03:45.318Z,1.00
2022-12-29T04:04:45.187Z,0.70
2022-12-29T04:05:43.987Z,0.90
2022-12-29T04:06:46.484Z,1.10
2022-12-29T04:07:43.949Z,0.80
2022-12-29T04:08:43.964Z,0.90
2022-12-29T04:09:43.943Z,0.70
2022-12-29T04:10:45.957Z,0.80
2022-12-29T04:11:43.986Z,0.90
2022-12-29T04:12:43.959Z,0.80
2022-12-29T04:13:43.967Z,0.70
2022-12-29T04:14:45.649Z,0.80
2022-12-29T04:15:51.582Z,0.80
2022-12-29T04:16:43.969Z,0.80
2022-12-29T04:17:43.961Z,0.80
2022-12-29T04:18:43.970Z,0.80
2022-12-29T04:19:43.970Z,0.80
2022-12-29T04:20:44.722Z,0.80
2022-12-29T04:21:45.679Z,0.90
2022-12-29T04:22:43.982Z,0.90
2022-12-29T04:23:44.968Z,0.90
2022-12-29T04:24:43.965Z,0.90
2022-12-29T04:25:43.955Z,0.80
2022-12-29T04:26:45.102Z,0.80
2022-12-29T04:27:43.964Z,0.80
2022-12-29T04:28:44.975Z,1.10
2022-12-29T04:29:43.967Z,0.80
2022-12-29T04:30:43.962Z,0.80
2022-12-29T04:31:43.215Z,0.90
2022-12-29T04:32:43.975Z,0.90
2022-12-29T04:33:44.993Z,0.80
2022-12-29T04:34:43.950Z,1.20
2022-12-29T04:35:43.944Z,0.70
2022-12-29T04:36:43.147Z,0.80
2022-12-29T04:37:44.963Z,1.00
2022-12-29T04:38:43.970Z,0.80
2022-12-29T04:39:44.974Z,1.00
2022-12-29T04:40:47.571Z,0.80
2022-12-29T04:41:43.062Z,0.80
2022-12-29T04:42:44.991Z,0.70
2022-12-29T04:43:43.976Z,0.60
2022-12-29T04:44:45.313Z,0.80
2022-12-29T04:45:43.946Z,0.80
2022-12-29T04:46:43.992Z,0.80
2022-12-29T04:48:14.269Z,0.70
2022-12-29T04:48:48.485Z,0.80
2022-12-29T04:49:44.976Z,0.80
2022-12-29T04:50:44.189Z,0.70
2022-12-29T04:51:43.979Z,0.70
2022-12-29T04:52:43.478Z,0.90
2022-12-29T04:53:45.981Z,0.70
2022-12-29T04:54:43.477Z,0.90
2022-12-29T04:55:45.330Z,0.70
2022-12-29T04:56:44.492Z,1.00
2022-12-29T04:57:43.465Z,0.90
2022-12-29T04:58:43.454Z,0.80
2022-12-29T05:00:50.622Z,0.70
2022-12-29T05:00:57.304Z,0.70
2022-12-29T05:01:56.524Z,0.90
2022-12-29T05:02:59.257Z,0.70
2022-12-29T05:03:56.502Z,0.80
2022-12-29T05:05:03.486Z,1.10
2022-12-29T05:05:56.479Z,0.80
2022-12-29T05:06:57.172Z,0.80
2022-12-29T05:07:56.467Z,1.00
2022-12-29T05:08:56.584Z,0.90
2022-12-29T05:09:57.574Z,1.20
2022-12-29T05:10:57.482Z,0.90
2022-12-29T05:12:00.659Z,0.80
2022-12-29T05:12:56.478Z,0.90
2022-12-29T05:13:58.062Z,0.80
2022-12-29T05:14:56.481Z,0.80
2022-12-29T05:15:56.487Z,0.90
2022-12-29T05:16:55.992Z,0.80
2022-12-29T05:17:55.973Z,0.80
2022-12-29T05:18:59.073Z,0.80
2022-12-29T05:19:55.970Z,0.80
2022-12-29T05:20:56.653Z,0.80
2022-12-29T05:21:58.503Z,1.00
2022-12-29T05:22:57.830Z,0.70
2022-12-29T05:23:55.970Z,0.80
2022-12-29T05:24:55.974Z,0.80
2022-12-29T05:25:55.973Z,0.70
2022-12-29T05:26:56.996Z,0.80
2022-12-29T05:27:56.021Z,0.90
2022-12-29T05:28:55.974Z,0.80
2022-12-29T05:29:55.975Z,0.70
2022-12-29T05:30:56.003Z,0.80
2022-12-29T05:31:57.017Z,0.70
2022-12-29T05:32:55.308Z,0.90
2022-12-29T05:33:57.038Z,0.80
2022-12-29T05:34:55.961Z,0.80
2022-12-29T05:35:55.977Z,0.70
2022-12-29T05:36:55.950Z,0.80
2022-12-29T05:37:57.006Z,0.80
2022-12-29T05:38:55.981Z,0.80
2022-12-29T05:39:56.719Z,0.90
2022-12-29T05:40:55.965Z,0.80
2022-12-29T05:41:55.977Z,0.70
2022-12-29T05:42:55.179Z,0.80
2022-12-29T05:43:56.986Z,0.70
2022-12-29T05:44:55.990Z,0.90
2022-12-29T05:45:55.994Z,0.80
2022-12-29T05:46:58.652Z,0.80
2022-12-29T05:47:55.996Z,0.80
2022-12-29T05:48:58.602Z,0.80
2022-12-29T05:49:55.977Z,1.00
2022-12-29T05:50:55.967Z,0.80
2022-12-29T05:52:00.036Z,1.00
2022-12-29T05:52:55.978Z,0.80
2022-12-29T05:53:55.970Z,0.70
2022-12-29T05:54:58.501Z,0.80
2022-12-29T05:55:55.993Z,0.90
2022-12-29T05:56:55.990Z,0.90
2022-12-29T05:57:55.989Z,0.90
2022-12-29T05:58:55.990Z,0.90
2022-12-29T05:59:56.990Z,0.90
2022-12-29T06:00:55.990Z,0.80
2022-12-29T06:01:56.149Z,1.20
2022-12-29T06:02:56.189Z,1.10
2022-12-29T06:03:55.657Z,0.80
2022-12-29T06:04:57.201Z,1.00
2022-12-29T06:05:55.526Z,0.80
2022-12-29T06:06:55.484Z,0.80
2022-12-29T06:07:59.812Z,0.70
2022-12-29T06:08:55.470Z,0.70
2022-12-29T06:09:56.496Z,0.90
2022-12-29T06:10:55.471Z,0.80
2022-12-29T06:11:56.268Z,0.60
2022-12-29T06:12:55.474Z,0.80
2022-12-29T06:13:55.484Z,0.70
2022-12-29T06:14:56.480Z,0.80
2022-12-29T06:15:55.581Z,0.90
2022-12-29T06:17:57.709Z,0.70
2022-12-29T06:18:02.704Z,0.80
2022-12-29T06:19:03.477Z,0.80
2022-12-29T06:20:04.492Z,1.00
2022-12-29T06:21:06.029Z,0.80
2022-12-29T06:22:03.484Z,0.90
2022-12-29T06:23:03.483Z,0.70
2022-12-29T06:24:02.720Z,0.90
2022-12-29T06:25:05.420Z,0.80
2022-12-29T06:26:08.005Z,1.00
2022-12-29T06:27:06.964Z,0.80
2022-12-29T06:28:03.482Z,0.90
2022-12-29T06:29:02.564Z,0.70
2022-12-29T06:30:02.588Z,0.70
2022-12-29T06:31:04.499Z,0.80
2022-12-29T06:32:04.235Z,0.70
2022-12-29T06:33:03.504Z,0.90
2022-12-29T06:34:08.136Z,1.20
2022-12-29T06:35:08.084Z,0.90
2022-12-29T06:36:03.488Z,0.90
2022-12-29T06:37:04.499Z,0.80
2022-12-29T06:38:03.487Z,0.80
2022-12-29T06:39:02.723Z,1.00
2022-12-29T06:40:03.658Z,0.80
2022-12-29T06:41:03.633Z,1.00
2022-12-29T06:42:02.999Z,1.00
2022-12-29T06:43:04.688Z,1.10
2022-12-29T06:44:02.428Z,1.00
2022-12-29T06:45:02.979Z,1.00
2022-12-29T06:46:03.026Z,1.00
2022-12-29T06:47:05.513Z,1.10
2022-12-29T06:48:02.988Z,1.10
2022-12-29T06:49:02.630Z,0.90
2022-12-29T06:50:05.359Z,1.20
2022-12-29T06:51:03.034Z,0.90
2022-12-29T06:52:07.595Z,1.00
2022-12-29T06:53:02.989Z,1.00
2022-12-29T06:54:02.991Z,1.00
2022-12-29T06:55:51.215Z,0.80
2022-12-29T06:56:02.309Z,1.00
2022-12-29T06:57:04.028Z,0.90
2022-12-29T06:58:02.989Z,1.00
2022-12-29T06:59:02.986Z,0.90
2022-12-29T07:00:04.020Z,1.10
2022-12-29T07:01:06.611Z,1.10
2022-12-29T07:02:04.187Z,1.00
2022-12-29T07:03:04.809Z,1.10
2022-12-29T07:04:04.013Z,0.90
2022-12-29T07:05:06.079Z,1.00
2022-12-29T07:06:13.583Z,1.10
2022-12-29T07:07:02.995Z,1.00
2022-12-29T07:08:03.889Z,0.90
2022-12-29T07:09:04.002Z,0.90
2022-12-29T07:10:02.998Z,0.90
2022-12-29T07:11:02.991Z,0.90
2022-12-29T07:12:07.255Z,1.10
2022-12-29T07:13:02.991Z,1.10
2022-12-29T07:14:04.010Z,1.00
2022-12-29T07:15:18.307Z,0.90
2022-12-29T07:16:03.006Z,1.00
2022-12-29T07:17:38.055Z,0.80
2022-12-29T07:18:04.019Z,1.00
2022-12-29T07:19:07.168Z,1.30
2022-12-29T07:20:02.618Z,1.00
2022-12-29T07:21:05.089Z,1.20
2022-12-29T07:22:02.537Z,1.00
2022-12-29T07:23:03.508Z,1.10
2022-12-29T07:24:02.519Z,1.40
2022-12-29T07:25:14.096Z,0.90
2022-12-29T07:26:04.191Z,0.90
2022-12-29T07:27:03.515Z,1.10
2022-12-29T07:28:02.513Z,0.90
2022-12-29T07:29:02.507Z,1.00
2022-12-29T07:30:03.533Z,0.90
2022-12-29T07:31:01.880Z,1.00
2022-12-29T07:32:03.550Z,1.10
2022-12-29T07:33:02.489Z,1.00
2022-12-29T07:34:02.507Z,1.10
2022-12-29T07:35:02.018Z,1.10
2022-12-29T07:36:03.529Z,1.10
2022-12-29T07:37:02.508Z,0.90
2022-12-29T07:38:02.513Z,1.10
2022-12-29T07:39:02.750Z,1.30
2022-12-29T07:40:01.814Z,1.30
2022-12-29T07:41:07.677Z,1.10
2022-12-29T07:42:05.585Z,1.10
2022-12-29T07:43:52.744Z,1.50
2022-12-29T07:44:01.758Z,1.00
2022-12-29T07:45:02.563Z,0.90
2022-12-29T07:46:14.562Z,1.30
2022-12-29T07:47:02.357Z,1.10
2022-12-29T07:48:02.519Z,1.30
2022-12-29T07:49:02.509Z,1.10
2022-12-29T07:50:06.166Z,1.10
2022-12-29T07:51:02.538Z,0.90
2022-12-29T07:52:03.018Z,1.30
2022-12-29T07:53:03.143Z,1.00
2022-12-29T07:54:02.519Z,0.90
2022-12-29T07:55:02.527Z,1.20
2022-12-29T07:56:03.246Z,0.90
2022-12-29T07:57:03.554Z,1.40
2022-12-29T07:58:04.249Z,1.00
2022-12-29T07:59:02.519Z,1.00
2022-12-29T08:00:03.224Z,1.20
2022-12-29T08:01:02.540Z,1.00
2022-12-29T08:02:02.754Z,1.00
2022-12-29T08:03:03.523Z,1.10
2022-12-29T08:04:02.595Z,1.00
2022-12-29T08:05:02.498Z,1.50
2022-12-29T08:06:04.242Z,1.00
2022-12-29T08:07:02.064Z,1.00
2022-12-29T08:08:09.018Z,1.10
2022-12-29T08:09:13.420Z,1.20
2022-12-29T08:10:02.007Z,1.40
2022-12-29T08:11:02.640Z,1.20
2022-12-29T08:12:06.595Z,1.10
2022-12-29T08:13:09.013Z,1.20
2022-12-29T08:14:05.076Z,1.20
2022-12-29T08:15:02.005Z,1.10
2022-12-29T08:16:03.844Z,1.30
2022-12-29T08:17:02.007Z,1.20
2022-12-29T08:18:02.019Z,1.20
2022-12-29T08:19:02.716Z,1.70
2022-12-29T08:20:02.033Z,1.10
2022-12-29T08:21:01.376Z,1.10
2022-12-29T08:22:06.548Z,1.20
2022-12-29T08:23:03.018Z,1.20
2022-12-29T08:24:02.809Z,1.10
2022-12-29T08:25:02.007Z,1.00
2022-12-29T08:26:01.324Z,1.00
2022-12-29T08:27:11.850Z,1.20
2022-12-29T08:28:02.010Z,1.10
2022-12-29T08:29:03.017Z,1.00
2022-12-29T08:43:09.681Z,1.40
2022-12-29T08:44:11.388Z,1.30
2022-12-29T08:45:09.686Z,1.20
2022-12-29T08:46:10.781Z,1.20
2022-12-29T08:47:09.685Z,1.30
2022-12-29T08:48:10.431Z,1.80
2022-12-29T08:49:09.652Z,1.30
2022-12-29T08:50:09.692Z,1.20
2022-12-29T08:51:10.673Z,1.20
2022-12-29T08:52:09.676Z,1.70
2022-12-29T08:53:09.663Z,1.30
2022-12-29T08:54:14.200Z,1.30
2022-12-29T08:55:30.679Z,1.50
2022-12-29T08:56:10.423Z,1.40
2022-12-29T08:57:09.922Z,1.30
2022-12-29T09:02:00.753Z,1.40
2022-12-29T09:03:01.260Z,1.40
2022-12-29T09:07:20.258Z,1.20
2022-12-29T09:15:17.636Z,1.20
2022-12-29T09:16:20.021Z,1.30
2022-12-29T09:18:55.396Z,1.50
2022-12-29T09:19:37.815Z,1.40
2022-12-29T09:20:35.961Z,1.40
2022-12-29T09:21:35.975Z,1.20
2022-12-29T09:24:39.725Z,1.20
2022-12-29T09:25:34.257Z,1.20
2022-12-29T09:30:38.902Z,1.50
2022-12-29T09:30:43.885Z,1.70
2022-12-29T09:32:23.558Z,1.30
2022-12-29T09:32:45.933Z,1.40
2022-12-29T09:33:45.397Z,1.30
2022-12-29T09:34:44.376Z,1.20
2022-12-29T09:35:43.836Z,1.10
2022-12-29T09:36:44.388Z,1.20
2022-12-29T09:37:44.399Z,1.10
2022-12-29T09:38:45.773Z,1.10
2022-12-29T09:39:47.874Z,1.20
2022-12-29T09:43:27.145Z,1.10
2022-12-29T09:43:42.368Z,1.50
2022-12-29T09:44:42.904Z,1.20
2022-12-29T09:45:44.068Z,1.40
2022-12-29T09:46:42.950Z,1.10
2022-12-29T09:47:42.267Z,1.50
2022-12-29T09:48:42.915Z,1.80
2022-12-29T09:49:44.745Z,1.20
2022-12-29T09:50:45.734Z,1.30
2022-12-29T09:51:43.955Z,1.40
2022-12-29T09:52:42.192Z,1.10
2022-12-29T09:53:42.913Z,1.10
2022-12-29T09:54:48.203Z,1.00
2022-12-29T09:55:43.408Z,1.30
2022-12-29T09:56:42.916Z,1.20
2022-12-29T09:57:50.760Z,1.30
2022-12-29T09:58:42.917Z,1.20
2022-12-29T09:59:42.936Z,1.40
2022-12-29T10:00:43.949Z,1.40
2022-12-29T10:01:43.101Z,1.20
2022-12-29T10:02:42.235Z,1.30
2022-12-29T10:03:42.966Z,1.30
2022-12-29T10:04:43.941Z,1.60
2022-12-29T10:05:46.729Z,1.50
2022-12-29T10:07:27.959Z,1.60
2022-12-29T10:09:50.100Z,1.40
2022-12-29T10:09:55.079Z,1.70
2022-12-29T10:10:55.943Z,1.30
2022-12-29T10:11:57.771Z,1.50
2022-12-29T10:12:55.961Z,1.20
2022-12-29T10:13:55.933Z,1.30
2022-12-29T10:14:56.927Z,1.30
2022-12-29T10:15:56.945Z,1.00
2022-12-29T10:16:55.964Z,1.40
2022-12-29T10:17:54.969Z,1.50
2022-12-29T10:18:55.926Z,1.30
2022-12-29T10:19:55.920Z,1.50
2022-12-29T10:20:56.928Z,1.30
2022-12-29T10:21:55.916Z,1.30
2022-12-29T10:22:54.917Z,1.30
2022-12-29T10:23:55.926Z,1.30
2022-12-29T10:24:55.451Z,1.20
2022-12-29T10:25:56.433Z,1.40
2022-12-29T10:26:55.435Z,1.20
2022-12-29T10:27:54.874Z,1.30
2022-12-29T10:28:55.450Z,1.50
2022-12-29T10:29:55.445Z,1.40
2022-12-29T10:30:56.442Z,1.20
2022-12-29T10:31:55.590Z,1.50
2022-12-29T10:32:54.834Z,1.40
2022-12-29T10:33:55.429Z,1.10
2022-12-29T10:34:58.534Z,1.40
2022-12-29T10:35:55.408Z,1.40
2022-12-29T10:36:56.485Z,1.50
2022-12-29T10:37:54.792Z,1.40
2022-12-29T10:38:55.475Z,1.10
2022-12-29T10:39:55.416Z,1.10
2022-12-29T10:40:56.450Z,1.60
2022-12-29T10:41:57.305Z,1.30
2022-12-29T10:42:54.714Z,1.60
2022-12-29T10:43:55.479Z,1.00
2022-12-29T10:44:56.464Z,1.30
2022-12-29T10:45:55.471Z,1.30
2022-12-29T10:46:55.414Z,1.60
2022-12-29T10:47:55.419Z,1.20
2022-12-29T10:48:55.422Z,1.30
2022-12-29T10:49:55.443Z,1.30
2022-12-29T10:51:01.570Z,1.10
2022-12-29T10:51:56.439Z,1.30
2022-12-29T10:52:55.453Z,1.50
2022-12-29T10:53:55.407Z,1.30
2022-12-29T10:54:55.275Z,1.30
2022-12-29T10:55:56.436Z,1.50
2022-12-29T10:56:55.525Z,1.30
2022-12-29T10:57:56.435Z,1.40
2022-12-29T10:58:55.540Z,1.70
2022-12-29T10:59:55.417Z,1.40
2022-12-29T11:00:54.635Z,1.20
2022-12-29T11:01:55.725Z,1.30
2022-12-29T11:02:56.689Z,1.40
2022-12-29T11:03:55.468Z,1.50
2022-12-29T11:04:55.437Z,1.40
2022-12-29T11:05:54.523Z,1.70
2022-12-29T11:06:57.245Z,1.60
2022-12-29T11:07:55.437Z,1.50
2022-12-29T11:08:56.483Z,1.30
2022-12-29T11:09:56.442Z,1.40
2022-12-29T11:10:54.910Z,2.10
2022-12-29T11:11:54.959Z,1.90
2022-12-29T11:12:56.006Z,1.60
2022-12-29T11:13:54.984Z,1.40
2022-12-29T11:14:54.946Z,1.50
2022-12-29T11:15:54.957Z,1.30
2022-12-29T11:16:54.959Z,1.40
2022-12-29T11:17:55.956Z,1.40
2022-12-29T11:18:55.944Z,1.50
2022-12-29T11:19:56.659Z,1.40
2022-12-29T11:20:54.960Z,1.30
2022-12-29T11:21:54.943Z,1.30
2022-12-29T11:22:54.927Z,1.20
2022-12-29T11:23:54.979Z,1.20
2022-12-29T11:24:54.940Z,1.50
2022-12-29T11:25:54.954Z,1.90
2022-12-29T11:26:54.926Z,1.50
2022-12-29T11:27:54.979Z,1.30
2022-12-29T11:28:54.926Z,1.70
2022-12-29T11:29:55.997Z,1.40
2022-12-29T11:30:54.957Z,1.40
2022-12-29T11:31:54.964Z,1.30
2022-12-29T11:32:56.725Z,1.50
2022-12-29T11:33:55.970Z,1.40
2022-12-29T11:34:55.953Z,1.40
2022-12-29T11:35:54.931Z,1.80
2022-12-29T11:36:54.947Z,1.40
2022-12-29T11:37:55.087Z,1.30
2022-12-29T11:38:54.938Z,1.30
2022-12-29T11:39:55.966Z,1.80
2022-12-29T11:40:54.945Z,1.50
2022-12-29T11:41:54.941Z,1.20
2022-12-29T11:42:58.327Z,1.50
2022-12-29T11:43:54.963Z,1.40
2022-12-29T11:44:54.962Z,1.30
2022-12-29T11:45:56.991Z,1.30
2022-12-29T11:46:54.953Z,1.30
2022-12-29T11:47:54.929Z,1.30
2022-12-29T11:48:54.938Z,1.50
2022-12-29T11:49:54.956Z,1.10
2022-12-29T11:50:54.956Z,1.20
2022-12-29T11:51:55.955Z,1.20
2022-12-29T11:52:54.740Z,1.20
2022-12-29T11:53:54.946Z,1.30
2022-12-29T11:54:55.732Z,1.40
2022-12-29T11:55:54.938Z,1.10
2022-12-29T11:56:54.424Z,1.20
2022-12-29T11:57:55.470Z,1.20
2022-12-29T11:58:54.652Z,1.30
2022-12-29T11:59:56.148Z,1.00
2022-12-29T12:00:54.436Z,1.30
2022-12-29T12:02:09.108Z,1.50
2022-12-29T12:02:55.538Z,1.40
2022-12-29T12:03:54.581Z,1.00
2022-12-29T12:04:54.469Z,1.40
2022-12-29T12:05:54.439Z,1.40
2022-12-29T12:06:55.450Z,1.40
2022-12-29T12:07:55.498Z,1.40
2022-12-29T12:08:55.460Z,1.50
2022-12-29T12:09:54.452Z,1.70
2022-12-29T12:10:54.432Z,1.20
2022-12-29T12:11:54.491Z,1.40
2022-12-29T12:12:54.428Z,1.20
2022-12-29T12:13:53.784Z,1.30
2022-12-29T12:14:55.985Z,1.70
2022-12-29T12:15:56.829Z,1.40
2022-12-29T12:16:54.477Z,2.00
2022-12-29T12:17:54.472Z,1.10
2022-12-29T12:18:55.459Z,1.10
2022-12-29T12:19:54.468Z,1.20
2022-12-29T12:20:54.440Z,1.30
2022-12-29T12:21:54.442Z,1.80
2022-12-29T12:22:54.428Z,1.30
2022-12-29T12:23:53.647Z,1.50
2022-12-29T12:24:53.636Z,1.10
2022-12-29T12:25:54.457Z,1.20
2022-12-29T12:26:54.429Z,1.40
2022-12-29T12:27:54.460Z,1.10
2022-12-29T12:28:53.613Z,1.40
2022-12-29T12:29:54.458Z,1.40
2022-12-29T12:30:55.504Z,1.40
2022-12-29T12:31:54.452Z,1.40
2022-12-29T12:32:54.447Z,1.50
2022-12-29T12:33:54.445Z,1.60
2022-12-29T12:34:55.465Z,1.30
2022-12-29T12:35:54.476Z,1.50
2022-12-29T12:38:17.174Z,1.30
2022-12-29T12:39:31.171Z,1.40
2022-12-29T12:40:21.567Z,1.20
2022-12-29T12:41:21.491Z,1.20
2022-12-29T12:42:30.344Z,1.20
2022-12-29T12:43:16.085Z,1.20
2022-12-29T13:04:48.116Z,1.30
2022-12-29T13:04:53.090Z,1.40
2022-12-29T13:05:55.944Z,1.30
2022-12-29T13:06:56.126Z,1.90
2022-12-29T13:08:05.060Z,1.30
2022-12-29T13:08:53.023Z,1.40
2022-12-29T13:10:06.420Z,1.40
2022-12-29T13:10:53.758Z,1.70
2022-12-29T13:11:54.612Z,1.60
2022-12-29T13:12:55.113Z,1.20
2022-12-29T13:13:54.490Z,1.40
2022-12-29T13:15:07.157Z,1.30
2022-12-29T13:15:57.133Z,1.20
2022-12-29T13:17:58.374Z,1.50
2022-12-29T13:18:03.325Z,1.40
2022-12-29T13:19:04.112Z,1.00
2022-12-29T13:20:58.802Z,1.40
2022-12-29T13:21:03.781Z,1.10
2022-12-29T13:22:06.975Z,1.60
2022-12-29T13:23:04.625Z,1.30
2022-12-29T13:24:05.291Z,1.60
2022-12-29T13:25:04.607Z,1.20
2022-12-29T13:26:05.184Z,1.20
2022-12-29T13:27:04.613Z,1.00
2022-12-29T13:28:04.596Z,1.10
2022-12-29T13:29:46.956Z,1.20
2022-12-29T13:30:09.115Z,1.20
2022-12-29T13:31:04.640Z,1.20
2022-12-29T13:32:04.588Z,1.20
2022-12-29T13:33:03.661Z,1.40
2022-12-29T13:34:03.622Z,1.10
2022-12-29T13:35:03.609Z,1.30
2022-12-29T13:36:03.614Z,1.10
2022-12-29T13:37:04.129Z,1.10
2022-12-29T13:38:07.191Z,1.10
2022-12-29T13:39:05.141Z,1.30
2022-12-29T13:40:04.114Z,1.20
2022-12-29T13:41:03.572Z,0.90
2022-12-29T13:44:33.252Z,1.00
2022-12-29T13:44:41.114Z,1.30
2022-12-29T13:45:39.099Z,1.50
2022-12-29T13:46:40.142Z,1.50
2022-12-29T13:47:39.103Z,1.30
2022-12-29T13:48:39.128Z,1.50
2022-12-29T13:49:39.100Z,1.30
2022-12-29T13:50:39.104Z,1.30
2022-12-29T13:51:40.128Z,1.50
2022-12-29T13:52:39.116Z,1.20
2022-12-29T13:53:39.129Z,1.20
2022-12-29T13:54:46.146Z,1.40
2022-12-29T13:55:39.090Z,1.20
2022-12-29T13:56:41.120Z,1.20
2022-12-29T13:57:39.102Z,1.20
2022-12-29T13:58:38.440Z,1.20
2022-12-29T13:59:39.099Z,1.10
2022-12-29T14:00:39.098Z,1.30
2022-12-29T14:01:40.248Z,1.30
2022-12-29T14:02:39.329Z,1.10
2022-12-29T14:03:40.384Z,1.20
2022-12-29T14:04:39.115Z,1.40
2022-12-29T14:05:38.359Z,1.20
2022-12-29T14:06:40.121Z,1.40
2022-12-29T14:07:39.118Z,1.30
2022-12-29T14:08:39.111Z,1.30
2022-12-29T14:09:39.096Z,1.30
2022-12-29T14:10:40.148Z,1.40
2022-12-29T14:11:40.154Z,1.60
2022-12-29T14:12:38.347Z,1.80
2022-12-29T14:13:39.133Z,1.30
2022-12-29T14:14:40.121Z,1.40
2022-12-29T14:15:39.121Z,1.40
2022-12-29T14:16:38.370Z,1.40
2022-12-29T14:17:39.101Z,1.30
2022-12-29T14:18:39.115Z,1.30
2022-12-29T14:19:42.727Z,1.60
2022-12-29T14:20:39.109Z,1.20
2022-12-29T14:21:39.113Z,1.30
2022-12-29T14:22:41.717Z,1.40
2022-12-29T14:23:39.129Z,1.30
2022-12-29T14:25:23.130Z,1.30
2022-12-29T14:25:46.120Z,1.10